createdAt,value
2022-09-28T00:00:09.671Z,100.00
2022-09-28T00:01:14.038Z,100.00
2022-09-28T00:02:15.857Z,100.00
2022-09-28T00:03:17.461Z,100.00
2022-09-28T00:04:20.452Z,100.00
2022-09-28T00:05:22.403Z,100.00
2022-09-28T00:06:26.775Z,100.00
2022-09-28T00:07:28.937Z,100.00
2022-09-28T00:08:30.544Z,100.00
2022-09-28T00:09:32.141Z,100.00
2022-09-28T00:10:33.681Z,100.00
2022-09-28T00:11:36.052Z,100.00
2022-09-28T00:12:37.639Z,100.00
2022-09-28T00:13:40.343Z,100.00
2022-09-28T00:14:44.129Z,100.00
2022-09-28T00:15:45.670Z,100.00
2022-09-28T00:16:48.603Z,100.00
2022-09-28T00:17:50.384Z,100.00
2022-09-28T00:18:52.338Z,100.00
2022-09-28T00:19:54.125Z,100.00
2022-09-28T00:21:11.295Z,100.00
2022-09-28T00:22:12.852Z,100.00
2022-09-28T00:23:14.363Z,100.00
2022-09-28T00:24:16.053Z,100.00
2022-09-28T00:25:17.769Z,100.00
2022-09-28T00:26:19.284Z,100.00
2022-09-28T00:27:20.849Z,100.00
2022-09-28T00:28:22.427Z,100.00
2022-09-28T00:29:27.007Z,99.95
2022-09-28T00:30:28.532Z,99.17
2022-09-28T00:31:32.784Z,98.88
2022-09-28T00:32:34.688Z,98.43
2022-09-28T00:33:36.229Z,99.04
2022-09-28T00:34:42.466Z,98.02
2022-09-28T00:35:44.107Z,98.39
2022-09-28T00:36:48.151Z,97.99
2022-09-28T00:37:50.334Z,96.84
2022-09-28T00:38:52.315Z,97.39
2022-09-28T00:39:53.824Z,97.37
2022-09-28T00:40:56.136Z,96.99
2022-09-28T00:41:58.817Z,97.30
2022-09-28T00:43:20.333Z,97.22
2022-09-28T00:44:52.928Z,97.55
2022-09-28T00:46:03.696Z,97.81
2022-09-28T00:47:38.675Z,98.75
2022-09-28T00:48:51.949Z,98.79
2022-09-28T00:50:02.312Z,98.93
2022-09-28T00:51:09.236Z,99.30
2022-09-28T00:52:15.753Z,100.00
2022-09-28T00:53:26.773Z,99.68
2022-09-28T00:54:31.095Z,98.29
2022-09-28T00:55:40.170Z,98.46
2022-09-28T00:56:44.683Z,98.20
2022-09-28T00:57:51.877Z,98.22
2022-09-28T00:58:54.740Z,98.60
2022-09-28T00:59:56.851Z,98.71
2022-09-28T01:00:59.716Z,98.50
2022-09-28T01:02:02.346Z,98.44
2022-09-28T01:03:04.147Z,98.97
2022-09-28T01:04:06.492Z,98.83
2022-09-28T01:05:10.410Z,98.03
2022-09-28T01:06:18.036Z,97.97
2022-09-28T01:07:20.220Z,97.23
2022-09-28T01:08:24.633Z,96.72
2022-09-28T01:09:27.708Z,96.16
2022-09-28T01:10:31.146Z,96.54
2022-09-28T01:11:33.728Z,95.64
2022-09-28T01:12:35.267Z,95.85
2022-09-28T01:13:37.859Z,95.60
2022-09-28T01:14:41.230Z,96.02
2022-09-28T01:15:59.370Z,96.49
2022-09-28T01:17:37.841Z,97.85
2022-09-28T01:19:07.947Z,97.68
2022-09-28T01:20:21.539Z,96.43
2022-09-28T01:21:24.512Z,95.89
2022-09-28T01:22:34.437Z,95.46
2022-09-28T01:24:20.718Z,95.45
2022-09-28T01:25:25.933Z,95.35
2022-09-28T01:27:11.877Z,95.08
2022-09-28T01:28:16.324Z,96.63
2022-09-28T01:29:40.428Z,99.35
2022-09-28T01:31:12.851Z,100.00
2022-09-28T01:32:29.633Z,100.00
2022-09-28T01:33:46.024Z,100.00
2022-09-28T01:34:57.751Z,100.00
2022-09-28T01:36:33.305Z,100.00
2022-09-28T01:37:48.214Z,100.00
2022-09-28T01:38:55.299Z,100.00
2022-09-28T01:39:58.590Z,100.00
2022-09-28T01:41:00.673Z,99.77
2022-09-28T01:42:12.038Z,99.26
2022-09-28T01:43:26.709Z,99.81
2022-09-28T01:44:32.865Z,100.00
2022-09-28T01:45:42.813Z,100.00
2022-09-28T01:46:48.427Z,100.00
2022-09-28T01:47:51.280Z,100.00
2022-09-28T01:49:05.129Z,100.00
2022-09-28T01:50:14.725Z,100.00
2022-09-28T01:51:29.341Z,100.00
2022-09-28T01:52:40.989Z,100.00
2022-09-28T01:53:49.272Z,100.00
2022-09-28T01:55:34.712Z,100.00
2022-09-28T01:56:42.002Z,100.00
2022-09-28T01:57:48.393Z,100.00
2022-09-28T01:58:57.671Z,100.00
2022-09-28T02:00:14.620Z,100.00
2022-09-28T02:01:24.611Z,100.00
2022-09-28T02:02:32.833Z,100.00
2022-09-28T02:03:46.048Z,100.00
2022-09-28T02:05:04.904Z,100.00
2022-09-28T02:06:16.350Z,100.00
2022-09-28T02:07:24.401Z,100.00
2022-09-28T02:08:45.911Z,100.00
2022-09-28T02:09:56.031Z,100.00
2022-09-28T02:11:04.902Z,100.00
2022-09-28T02:12:15.075Z,100.00
2022-09-28T02:13:25.333Z,100.00
2022-09-28T02:14:29.819Z,100.00
2022-09-28T02:15:41.664Z,100.00
2022-09-28T02:16:46.758Z,100.00
2022-09-28T02:17:49.404Z,100.00
2022-09-28T02:18:51.580Z,100.00
2022-09-28T02:19:53.211Z,100.00
2022-09-28T02:21:11.034Z,100.00
2022-09-28T02:22:28.614Z,100.00
2022-09-28T02:23:35.167Z,100.00
2022-09-28T02:24:41.996Z,100.00
2022-09-28T02:25:50.121Z,99.40
2022-09-28T02:26:55.354Z,98.35
2022-09-28T02:27:56.868Z,98.89
2022-09-28T02:28:59.316Z,99.15
2022-09-28T02:30:01.670Z,99.90
2022-09-28T02:31:03.492Z,99.64
2022-09-28T02:32:05.256Z,99.84
2022-09-28T02:33:15.686Z,100.00
2022-09-28T02:34:17.390Z,100.00
2022-09-28T02:35:19.857Z,100.00
2022-09-28T02:36:22.232Z,99.99
2022-09-28T02:37:23.915Z,100.00
2022-09-28T02:38:25.511Z,100.00
2022-09-28T02:39:27.148Z,100.00
2022-09-28T02:40:33.568Z,100.00
2022-09-28T02:41:41.151Z,100.00
2022-09-28T02:43:10.654Z,100.00
2022-09-28T02:44:41.091Z,100.00
2022-09-28T02:46:03.604Z,100.00
2022-09-28T02:47:27.158Z,100.00
2022-09-28T02:49:04.963Z,100.00
2022-09-28T02:50:20.764Z,100.00
2022-09-28T02:51:35.983Z,100.00
2022-09-28T02:53:06.772Z,100.00
2022-09-28T02:54:39.262Z,100.00
2022-09-28T02:56:18.217Z,100.00
2022-09-28T02:57:19.733Z,100.00
2022-09-28T02:58:33.256Z,100.00
2022-09-28T02:59:58.492Z,100.00
2022-09-28T03:01:18.560Z,99.02
2022-09-28T03:02:32.203Z,98.11
2022-09-28T03:03:48.621Z,99.04
2022-09-28T03:05:16.057Z,99.82
2022-09-28T03:06:27.022Z,99.79
2022-09-28T03:07:37.807Z,99.64
2022-09-28T03:08:52.952Z,99.50
2022-09-28T03:10:27.790Z,98.87
2022-09-28T03:11:37.082Z,98.97
2022-09-28T03:12:39.589Z,99.31
2022-09-28T03:13:42.416Z,99.32
2022-09-28T03:14:45.179Z,98.18
2022-09-28T03:15:48.980Z,97.67
2022-09-28T03:16:50.904Z,98.69
2022-09-28T03:17:52.681Z,100.00
2022-09-28T03:18:54.463Z,100.00
2022-09-28T03:19:55.994Z,100.00
2022-09-28T03:20:57.855Z,100.00
2022-09-28T03:21:59.816Z,99.66
2022-09-28T03:23:23.384Z,98.85
2022-09-28T03:24:23.190Z,98.57
2022-09-28T03:25:24.806Z,97.98
2022-09-28T03:26:26.381Z,97.93
2022-09-28T03:27:29.038Z,97.26
2022-09-28T03:28:31.103Z,97.61
2022-09-28T03:29:33.534Z,97.55
2022-09-28T03:30:35.724Z,97.13
2022-09-28T03:31:38.507Z,97.79
2022-09-28T03:32:40.644Z,98.37
2022-09-28T03:33:42.426Z,98.61
2022-09-28T03:34:45.638Z,99.71
2022-09-28T03:35:48.551Z,100.00
2022-09-28T03:36:50.073Z,100.00
2022-09-28T03:37:55.974Z,100.00
2022-09-28T03:38:57.820Z,100.00
2022-09-28T03:39:59.383Z,100.00
2022-09-28T03:41:01.286Z,100.00
2022-09-28T03:42:02.945Z,100.00
2022-09-28T03:43:04.535Z,100.00
2022-09-28T03:44:06.123Z,99.59
2022-09-28T03:45:07.910Z,100.00
2022-09-28T03:46:09.641Z,100.00
2022-09-28T03:47:11.333Z,100.00
2022-09-28T03:48:12.889Z,100.00
2022-09-28T03:49:14.545Z,100.00
2022-09-28T03:50:16.433Z,100.00
2022-09-28T03:51:17.965Z,100.00
2022-09-28T03:52:19.561Z,100.00
2022-09-28T03:53:21.343Z,100.00
2022-09-28T03:54:23.047Z,100.00
2022-09-28T03:55:24.645Z,100.00
2022-09-28T03:56:26.566Z,100.00
2022-09-28T03:57:28.118Z,100.00
2022-09-28T03:58:29.801Z,100.00
2022-09-28T03:59:31.364Z,100.00
2022-09-28T04:00:33.079Z,100.00
2022-09-28T04:01:34.832Z,100.00
2022-09-28T04:02:36.609Z,100.00
2022-09-28T04:03:38.768Z,100.00
2022-09-28T04:04:40.324Z,100.00
2022-09-28T04:05:52.805Z,100.00
2022-09-28T04:06:54.414Z,100.00
2022-09-28T04:07:58.818Z,100.00
2022-09-28T04:09:00.426Z,100.00
2022-09-28T04:10:01.958Z,100.00
2022-09-28T04:11:03.692Z,100.00
2022-09-28T04:12:06.103Z,100.00
2022-09-28T04:13:07.645Z,100.00
2022-09-28T04:14:10.765Z,100.00
2022-09-28T04:15:12.515Z,100.00
2022-09-28T04:16:14.144Z,100.00
2022-09-28T04:17:15.696Z,100.00
2022-09-28T04:18:17.244Z,100.00
2022-09-28T04:19:20.004Z,100.00
2022-09-28T04:20:22.105Z,100.00
2022-09-28T04:21:23.688Z,100.00
2022-09-28T04:22:25.245Z,100.00
2022-09-28T04:23:27.879Z,100.00
2022-09-28T04:24:29.429Z,100.00
2022-09-28T04:25:30.985Z,100.00
2022-09-28T04:26:32.522Z,100.00
2022-09-28T04:27:52.255Z,100.00
2022-09-28T04:29:12.630Z,100.00
2022-09-28T04:30:14.518Z,100.00
2022-09-28T04:31:22.329Z,100.00
2022-09-28T04:32:24.405Z,100.00
2022-09-28T04:33:25.961Z,100.00
2022-09-28T04:34:31.916Z,100.00
2022-09-28T04:35:37.076Z,100.00
2022-09-28T04:36:38.587Z,100.00
2022-09-28T04:37:40.307Z,100.00
2022-09-28T04:38:52.851Z,100.00
2022-09-28T04:39:54.909Z,100.00
2022-09-28T04:40:56.522Z,100.00
2022-09-28T04:41:58.062Z,100.00
2022-09-28T04:42:59.626Z,100.00
2022-09-28T04:44:01.448Z,100.00
2022-09-28T04:45:04.787Z,100.00
2022-09-28T04:46:06.484Z,100.00
2022-09-28T04:47:08.111Z,100.00
2022-09-28T04:48:09.650Z,100.00
2022-09-28T04:49:11.571Z,100.00
2022-09-28T04:50:13.162Z,100.00
2022-09-28T04:51:14.951Z,100.00
2022-09-28T04:52:18.539Z,100.00
2022-09-28T04:53:20.485Z,100.00
2022-09-28T04:54:22.007Z,100.00
2022-09-28T04:55:23.691Z,100.00
2022-09-28T04:56:25.369Z,100.00
2022-09-28T04:57:26.890Z,100.00
2022-09-28T04:58:29.765Z,100.00
2022-09-28T04:59:31.511Z,100.00
2022-09-28T05:00:35.955Z,100.00
2022-09-28T05:01:37.775Z,100.00
2022-09-28T05:02:39.433Z,100.00
2022-09-28T05:03:41.555Z,100.00
2022-09-28T05:04:43.120Z,100.00
2022-09-28T05:05:45.773Z,100.00
2022-09-28T05:06:47.363Z,100.00
2022-09-28T05:07:48.928Z,100.00
2022-09-28T05:08:50.451Z,100.00
2022-09-28T05:09:51.989Z,100.00
2022-09-28T05:11:04.926Z,100.00
2022-09-28T05:12:06.563Z,100.00
2022-09-28T11:45:34.230Z,43.07
2022-09-28T11:46:52.253Z,42.79
2022-09-28T11:48:01.976Z,43.60
2022-09-28T11:49:41.770Z,43.96
2022-09-28T11:50:50.428Z,43.40
2022-09-28T11:51:56.757Z,44.33
2022-09-28T11:53:16.336Z,42.06
2022-09-28T11:54:34.109Z,41.99
2022-09-28T11:55:45.284Z,41.93
2022-09-28T11:56:50.487Z,41.58
2022-09-28T11:58:24.136Z,42.13
2022-09-28T11:59:31.944Z,41.48
2022-09-28T12:00:41.344Z,41.28
2022-09-28T12:01:53.344Z,41.80
2022-09-28T12:02:54.931Z,41.90
2022-09-28T12:04:03.865Z,41.77
2022-09-28T12:05:20.529Z,42.17
2022-09-28T12:06:30.112Z,42.68
2022-09-28T12:07:40.454Z,43.53
2022-09-28T12:09:06.531Z,42.74
2022-09-28T12:10:11.665Z,42.89
2022-09-28T12:11:32.929Z,42.95
2022-09-28T12:12:37.209Z,42.61
2022-09-28T12:13:44.620Z,43.45
2022-09-28T12:14:48.248Z,43.72
2022-09-28T12:16:38.418Z,42.52
2022-09-28T12:17:43.642Z,43.30
2022-09-28T12:20:27.224Z,42.38
2022-09-28T12:21:44.898Z,43.80
2022-09-28T12:23:11.760Z,42.68
2022-09-28T12:24:30.975Z,42.48
2022-09-28T12:25:42.973Z,41.36
2022-09-28T12:27:05.260Z,41.17
2022-09-28T12:28:15.428Z,42.45
2022-09-28T12:29:43.452Z,43.85
2022-09-28T12:30:47.609Z,43.34
2022-09-28T12:32:13.972Z,42.55
2022-09-28T12:33:15.649Z,43.08
2022-09-28T12:34:17.205Z,41.91
2022-09-28T12:35:54.944Z,41.99
2022-09-28T12:37:05.483Z,44.25
2022-09-28T12:38:38.063Z,43.43
2022-09-28T12:39:59.618Z,42.73
2022-09-28T12:41:07.826Z,43.69
2022-09-28T12:42:27.653Z,44.26
2022-09-28T12:43:55.151Z,43.32
2022-09-28T12:45:18.843Z,43.79
2022-09-28T12:46:33.152Z,44.52
2022-09-28T12:47:55.629Z,44.53
2022-09-28T12:51:39.311Z,43.76
2022-09-28T12:52:43.791Z,43.22
2022-09-28T12:54:06.838Z,42.56
2022-09-28T12:55:25.136Z,43.19
2022-09-28T12:56:36.134Z,42.75
2022-09-28T12:57:45.846Z,42.80
2022-09-28T12:59:06.029Z,42.01
2022-09-28T13:00:10.941Z,42.42
2022-09-28T13:01:31.254Z,43.00
2022-09-28T13:02:53.037Z,42.13
2022-09-28T13:04:00.310Z,42.44
2022-09-28T13:05:42.922Z,42.42
2022-09-28T13:06:54.585Z,43.05
2022-09-28T13:08:13.975Z,42.80
2022-09-28T13:09:20.299Z,43.21
2022-09-28T13:10:41.122Z,43.60
2022-09-28T13:11:54.798Z,44.07
2022-09-28T13:13:22.958Z,43.63
2022-09-28T13:14:33.731Z,43.98
2022-09-28T13:15:43.967Z,44.15
2022-09-28T13:17:14.914Z,43.93
2022-09-28T13:18:20.031Z,44.92
2022-09-28T13:19:28.580Z,43.95
2022-09-28T13:20:59.265Z,43.66
2022-09-28T13:22:22.846Z,44.27
2022-09-28T13:23:31.132Z,45.14
2022-09-28T13:24:37.534Z,44.16
2022-09-28T13:25:44.719Z,44.03
2022-09-28T13:26:47.436Z,44.59
2022-09-28T13:27:58.761Z,44.67
2022-09-28T13:29:04.369Z,44.40
2022-09-28T13:30:07.890Z,45.23
2022-09-28T13:31:11.250Z,44.79
2022-09-28T13:32:13.875Z,43.73
2022-09-28T13:33:39.521Z,44.14
2022-09-28T13:34:41.163Z,44.72
2022-09-28T13:35:44.091Z,44.35
2022-09-28T13:36:48.140Z,44.57
2022-09-28T13:38:16.317Z,45.08
2022-09-28T13:39:45.042Z,45.31
2022-09-28T13:41:04.910Z,45.37
2022-09-28T13:42:09.606Z,45.74
2022-09-28T13:43:26.994Z,45.61
2022-09-28T13:45:09.811Z,45.05
2022-09-28T13:46:25.080Z,45.12
2022-09-28T13:47:42.171Z,45.50
2022-09-28T13:49:03.551Z,45.31
2022-09-28T13:50:23.274Z,46.24
2022-09-28T13:51:55.492Z,45.51
2022-09-28T13:53:24.886Z,44.59
2022-09-28T13:54:42.978Z,45.45
2022-09-28T13:56:03.038Z,44.77
2022-09-28T13:57:19.633Z,43.98
2022-09-28T13:58:25.700Z,43.43
2022-09-28T13:59:32.365Z,43.74
2022-09-28T14:00:46.138Z,43.89
2022-09-28T14:01:55.704Z,43.93
2022-09-28T14:03:13.234Z,44.12
2022-09-28T14:04:21.896Z,43.99
2022-09-28T14:05:23.377Z,44.05
2022-09-28T14:06:28.280Z,44.63
2022-09-28T14:07:35.817Z,45.14
2022-09-28T14:09:04.909Z,44.78
2022-09-28T14:10:21.679Z,44.26
2022-09-28T14:11:34.210Z,44.42
2022-09-28T14:12:35.686Z,44.51
2022-09-28T14:13:43.001Z,44.26
2022-09-28T14:14:50.148Z,45.55
2022-09-28T14:15:52.409Z,44.09
2022-09-28T14:17:23.484Z,43.75
2022-09-28T14:18:27.916Z,43.52
2022-09-28T14:19:33.431Z,43.94
2022-09-28T14:20:36.406Z,44.13
2022-09-28T14:21:46.836Z,43.61
2022-09-28T14:23:15.586Z,43.42
2022-09-28T14:24:30.207Z,44.00
2022-09-28T14:25:36.003Z,45.78
2022-09-28T14:26:56.254Z,45.71
2022-09-28T14:28:23.299Z,45.29
2022-09-28T14:29:28.815Z,43.85
2022-09-28T14:30:44.971Z,43.84
2022-09-28T14:31:46.676Z,44.14
2022-09-28T14:33:22.868Z,43.75
2022-09-28T14:34:36.743Z,44.12
2022-09-28T14:35:43.669Z,44.53
2022-09-28T14:37:07.627Z,44.13
2022-09-28T14:38:38.185Z,44.35
2022-09-28T14:40:03.495Z,43.44
2022-09-28T14:41:27.115Z,44.18
2022-09-28T14:42:28.969Z,43.19
2022-09-28T14:43:45.576Z,43.48
2022-09-28T14:45:06.096Z,43.28
2022-09-28T14:46:11.613Z,43.41
2022-09-28T14:47:35.304Z,43.65
2022-09-28T14:48:53.515Z,45.24
2022-09-28T14:50:03.154Z,45.32
2022-09-28T14:51:26.735Z,44.44
2022-09-28T14:52:40.742Z,44.11
2022-09-28T14:53:42.402Z,44.67
2022-09-28T14:54:54.333Z,44.77
2022-09-28T14:56:00.651Z,44.62
2022-09-28T14:57:17.194Z,44.73
2022-09-28T14:58:22.814Z,44.89
2022-09-28T14:59:26.936Z,45.28
2022-09-28T15:00:31.866Z,44.74
2022-09-28T15:01:36.080Z,45.63
2022-09-28T15:02:38.819Z,45.74
2022-09-28T15:03:42.734Z,45.65
2022-09-28T15:04:50.343Z,45.29
2022-09-28T15:05:52.798Z,45.84
2022-09-28T15:06:54.539Z,45.95
2022-09-28T15:07:56.275Z,45.27
2022-09-28T15:08:57.852Z,46.22
2022-09-28T15:10:02.073Z,45.96
2022-09-28T15:11:03.747Z,46.43
2022-09-28T15:12:15.069Z,46.31
2022-09-28T15:13:20.791Z,45.74
2022-09-28T15:14:23.167Z,46.43
2022-09-28T15:15:30.617Z,46.58
2022-09-28T15:16:32.718Z,46.64
2022-09-28T15:17:39.974Z,46.04
2022-09-28T15:18:47.809Z,46.63
2022-09-28T15:20:08.828Z,46.26
2022-09-28T15:21:12.226Z,46.52
2022-09-28T15:22:17.748Z,46.76
2022-09-28T15:23:37.174Z,47.08
2022-09-28T15:24:40.228Z,47.19
2022-09-28T15:25:41.732Z,46.85
2022-09-28T15:26:48.106Z,47.25
2022-09-28T15:27:55.429Z,47.72
2022-09-28T15:28:57.285Z,47.93
2022-09-28T15:30:00.951Z,48.38
2022-09-28T15:31:04.985Z,48.03
2022-09-28T15:32:06.870Z,48.45
2022-09-28T15:33:44.811Z,48.25
2022-09-28T15:34:52.717Z,48.37
2022-09-28T15:36:06.833Z,48.27
2022-09-28T15:37:11.553Z,48.13
2022-09-28T15:38:19.002Z,48.24
2022-09-28T15:39:27.763Z,48.23
2022-09-28T15:40:37.742Z,48.23
2022-09-28T15:41:41.531Z,48.03
2022-09-28T15:42:45.281Z,48.59
2022-09-28T15:44:06.963Z,48.37
2022-09-28T15:45:14.313Z,48.86
2022-09-28T15:46:21.135Z,48.79
2022-09-28T15:47:28.374Z,48.97
2022-09-28T15:48:51.678Z,49.08
2022-09-28T15:50:04.507Z,49.49
2022-09-28T15:51:10.747Z,49.33
2022-09-28T15:52:36.781Z,49.53
2022-09-28T15:53:44.039Z,50.10
2022-09-28T15:54:45.688Z,49.69
2022-09-28T15:55:50.271Z,49.65
2022-09-28T15:56:58.923Z,49.82
2022-09-28T15:58:12.610Z,49.66
2022-09-28T15:59:14.061Z,50.19
2022-09-28T16:00:21.450Z,50.25
2022-09-28T16:01:36.412Z,49.81
2022-09-28T16:02:38.466Z,49.81
2022-09-28T16:03:40.063Z,50.33
2022-09-28T16:04:55.289Z,50.10
2022-09-28T16:06:09.925Z,50.05
2022-09-28T16:07:41.649Z,49.92
2022-09-28T16:08:48.855Z,50.53
2022-09-28T16:10:12.113Z,50.25
2022-09-28T16:11:16.709Z,50.52
2022-09-28T16:12:20.011Z,50.63
2022-09-28T16:13:23.142Z,51.02
2022-09-28T16:14:27.231Z,50.36
2022-09-28T16:15:37.912Z,50.35
2022-09-28T16:16:47.325Z,50.48
2022-09-28T16:18:10.422Z,50.73
2022-09-28T16:19:23.594Z,50.91
2022-09-28T16:20:29.906Z,50.98
2022-09-28T16:21:51.194Z,50.97
2022-09-28T16:22:53.630Z,51.10
2022-09-28T16:23:56.070Z,51.80
2022-09-28T16:25:00.101Z,52.09
2022-09-28T16:26:05.172Z,51.88
2022-09-28T16:27:06.618Z,51.75
2022-09-28T16:28:25.442Z,51.77
2022-09-28T16:29:39.014Z,51.95
2022-09-28T16:31:14.068Z,52.21
2022-09-28T16:32:47.906Z,52.20
2022-09-28T16:33:55.145Z,52.32
2022-09-28T16:35:21.692Z,52.26
2022-09-28T16:36:26.939Z,52.69
2022-09-28T16:37:32.458Z,52.74
2022-09-28T16:38:34.101Z,52.83
2022-09-28T16:39:35.854Z,52.87
2022-09-28T16:40:42.686Z,52.65
2022-09-28T16:41:53.947Z,52.77
2022-09-28T16:43:00.318Z,52.75
2022-09-28T16:44:02.388Z,52.89
2022-09-28T16:45:05.387Z,52.81
2022-09-28T16:46:17.535Z,52.97
2022-09-28T16:47:19.210Z,53.28
2022-09-28T16:48:21.889Z,53.33
2022-09-28T16:49:25.509Z,53.60
2022-09-28T16:50:27.772Z,53.54
2022-09-28T16:51:29.812Z,54.05
2022-09-28T16:52:51.713Z,53.91
2022-09-28T16:54:12.126Z,53.92
2022-09-28T16:55:40.379Z,53.83
2022-09-28T16:56:38.609Z,53.63
2022-09-28T16:57:40.162Z,53.40
2022-09-28T16:58:42.508Z,53.15
2022-09-28T16:59:44.139Z,53.66
2022-09-28T17:00:45.794Z,53.99
2022-09-28T17:01:49.456Z,54.11
2022-09-28T17:02:51.343Z,54.72
2022-09-28T17:03:52.892Z,55.04
2022-09-28T17:04:57.399Z,55.59
2022-09-28T17:05:58.960Z,55.37
2022-09-28T17:07:00.528Z,55.60
2022-09-28T17:08:04.014Z,55.87
2022-09-28T17:09:07.062Z,56.12
2022-09-28T17:10:29.295Z,56.07
2022-09-28T17:11:30.819Z,56.08
2022-09-28T17:12:32.366Z,56.20
2022-09-28T17:13:34.711Z,56.03
2022-09-28T17:14:36.967Z,55.99
2022-09-28T17:15:40.048Z,55.95
2022-09-28T17:17:06.691Z,56.39
2022-09-28T17:18:04.129Z,56.48
2022-09-28T17:19:21.439Z,56.73
2022-09-28T17:20:27.605Z,56.89
2022-09-28T17:21:29.152Z,57.13
2022-09-28T17:22:30.938Z,57.16
2022-09-28T17:23:33.302Z,57.36
2022-09-28T17:24:35.158Z,57.25
2022-09-28T17:25:36.821Z,57.37
2022-09-28T17:26:38.612Z,57.27
2022-09-28T17:27:45.431Z,57.47
2022-09-28T17:28:47.214Z,57.44
2022-09-28T17:29:48.799Z,57.41
2022-09-28T17:30:50.515Z,57.41
2022-09-28T17:31:54.771Z,57.25
2022-09-28T17:32:57.234Z,57.40
2022-09-28T17:33:58.900Z,57.97
2022-09-28T17:35:23.031Z,57.85
2022-09-28T17:36:22.788Z,57.89
2022-09-28T17:37:24.306Z,58.28
2022-09-28T17:38:25.937Z,58.18
2022-09-28T17:39:27.842Z,58.28
2022-09-28T17:40:30.423Z,58.26
2022-09-28T17:41:32.381Z,58.32
2022-09-28T17:42:34.163Z,58.53
2022-09-28T17:43:35.811Z,58.50
2022-09-28T17:44:37.345Z,58.79
2022-09-28T17:45:40.964Z,58.55
2022-09-28T17:46:49.677Z,58.68
2022-09-28T17:47:51.472Z,58.69
2022-09-28T17:48:56.563Z,59.00
2022-09-28T17:49:58.596Z,59.21
2022-09-28T17:51:02.004Z,59.16
2022-09-28T17:52:05.472Z,59.25
2022-09-28T17:53:07.276Z,59.69
2022-09-28T17:54:08.917Z,59.37
2022-09-28T17:55:10.537Z,59.82
2022-09-28T17:56:12.284Z,59.91
2022-09-28T17:57:13.797Z,59.94
2022-09-28T17:58:18.441Z,60.25
2022-09-28T17:59:20.041Z,59.79
2022-09-28T18:00:22.793Z,59.66
2022-09-28T18:01:24.429Z,59.75
2022-09-28T18:02:26.090Z,60.02
2022-09-28T18:03:27.724Z,60.24
2022-09-28T18:04:50.873Z,60.33
2022-09-28T18:06:00.592Z,60.49
2022-09-28T18:07:02.115Z,60.19
2022-09-28T18:08:04.534Z,60.83
2022-09-28T18:09:06.204Z,60.88
2022-09-28T18:10:13.682Z,60.66
2022-09-28T18:11:17.368Z,60.75
2022-09-28T18:12:19.280Z,61.05
2022-09-28T18:13:20.817Z,61.06
2022-09-28T18:14:22.538Z,61.06
2022-09-28T18:15:24.257Z,60.96
2022-09-28T18:16:28.023Z,61.41
2022-09-28T18:17:29.674Z,61.11
2022-09-28T18:18:33.363Z,61.19
2022-09-28T18:19:34.888Z,61.02
2022-09-28T18:20:37.589Z,61.28
2022-09-28T18:21:39.155Z,61.28
2022-09-28T18:22:40.742Z,61.67
2022-09-28T18:23:42.372Z,61.44
2022-09-28T18:24:43.891Z,61.51
2022-09-28T18:25:46.379Z,61.61
2022-09-28T18:26:47.889Z,62.02
2022-09-28T18:27:49.435Z,62.37
2022-09-28T18:28:54.600Z,62.11
2022-09-28T18:29:56.935Z,62.20
2022-09-28T18:30:59.058Z,62.22
2022-09-28T18:32:01.540Z,62.40
2022-09-28T18:33:03.058Z,62.42
2022-09-28T18:34:04.621Z,62.50
2022-09-28T18:35:08.783Z,62.49
2022-09-28T18:36:10.413Z,62.77
2022-09-28T18:37:11.995Z,62.54
2022-09-28T18:38:13.557Z,62.75
2022-09-28T18:39:15.115Z,62.64
2022-09-28T18:40:16.684Z,62.86
2022-09-28T18:41:18.264Z,62.91
2022-09-28T18:42:20.642Z,63.16
2022-09-28T18:43:22.949Z,63.26
2022-09-28T18:44:24.913Z,63.32
2022-09-28T18:45:26.749Z,63.68
2022-09-28T18:46:29.481Z,63.42
2022-09-28T18:47:31.212Z,63.56
2022-09-28T18:48:32.810Z,63.30
2022-09-28T18:49:34.507Z,63.96
2022-09-28T18:50:36.167Z,63.76
2022-09-28T18:51:37.714Z,63.54
2022-09-28T18:52:40.066Z,63.57
2022-09-28T18:53:42.206Z,63.87
2022-09-28T18:54:44.153Z,63.95
2022-09-28T18:55:45.710Z,64.14
2022-09-28T18:56:47.442Z,63.67
2022-09-28T18:57:49.163Z,63.88
2022-09-28T18:58:53.771Z,63.38
2022-09-28T18:59:55.318Z,63.61
2022-09-28T19:01:13.576Z,63.33
2022-09-28T19:02:18.474Z,63.35
2022-09-28T19:03:20.275Z,63.15
2022-09-28T19:04:21.915Z,62.65
2022-09-28T19:05:23.518Z,62.74
2022-09-28T19:06:25.061Z,62.71
2022-09-28T19:07:26.912Z,62.28
2022-09-28T19:08:28.436Z,62.08
2022-09-28T19:09:30.159Z,62.14
2022-09-28T19:10:31.707Z,62.31
2022-09-28T19:11:33.546Z,62.27
2022-09-28T19:12:35.064Z,61.96
2022-09-28T19:13:37.364Z,62.35
2022-09-28T19:14:39.048Z,62.83
2022-09-28T19:15:40.626Z,62.79
2022-09-28T19:16:44.123Z,61.97
2022-09-28T19:17:46.806Z,61.88
2022-09-28T19:18:48.543Z,61.88
2022-09-28T19:19:51.210Z,61.68
2022-09-28T19:20:52.813Z,62.13
2022-09-28T19:21:54.414Z,62.36
2022-09-28T19:22:55.973Z,62.01
2022-09-28T19:24:00.944Z,61.88
2022-09-28T19:25:02.488Z,62.07
2022-09-28T19:26:14.349Z,62.06
2022-09-28T19:27:16.043Z,61.69
2022-09-28T19:28:17.569Z,61.88
2022-09-28T19:29:19.785Z,61.50
2022-09-28T19:30:21.414Z,60.63
2022-09-28T19:31:23.396Z,61.01
2022-09-28T19:32:24.905Z,60.81
2022-09-28T19:33:26.928Z,61.01
2022-09-28T19:34:30.125Z,61.44
2022-09-28T19:35:31.926Z,61.53
2022-09-28T19:36:33.466Z,61.54
2022-09-28T19:37:36.576Z,62.05
2022-09-28T19:38:39.401Z,62.18
2022-09-28T19:39:40.953Z,62.20
2022-09-28T19:40:42.553Z,62.54
2022-09-28T19:41:47.880Z,62.43
2022-09-28T19:42:49.386Z,62.51
2022-09-28T19:43:51.377Z,62.24
2022-09-28T19:44:52.891Z,62.58
2022-09-28T19:45:55.991Z,62.78
2022-09-28T19:47:07.385Z,62.91
2022-09-28T19:48:08.939Z,62.73
2022-09-28T19:49:25.255Z,62.88
2022-09-28T19:50:26.775Z,63.25
2022-09-28T19:51:28.892Z,63.62
2022-09-28T19:52:30.482Z,63.65
2022-09-28T19:53:37.894Z,63.70
2022-09-28T19:54:39.686Z,63.95
2022-09-28T19:55:41.414Z,64.26
2022-09-28T19:56:45.107Z,64.28
2022-09-28T19:57:47.991Z,64.50
2022-09-28T19:58:50.311Z,64.73
2022-09-28T19:59:53.808Z,65.21
2022-09-28T20:00:57.385Z,64.58
2022-09-28T20:02:01.359Z,65.01
2022-09-28T20:03:03.009Z,65.25
2022-09-28T20:04:04.541Z,65.60
2022-09-28T20:05:06.225Z,66.09
2022-09-28T20:06:08.197Z,66.22
2022-09-28T20:07:09.777Z,66.47
2022-09-28T20:08:12.625Z,66.72
2022-09-28T20:09:14.242Z,66.78
2022-09-28T20:10:16.199Z,66.62
2022-09-28T20:11:18.845Z,66.92
2022-09-28T20:12:20.457Z,67.02
2022-09-28T20:13:23.387Z,67.46
2022-09-28T20:14:25.986Z,66.99
2022-09-28T20:15:30.122Z,66.72
2022-09-28T20:16:32.092Z,66.66
2022-09-28T20:17:36.294Z,66.05
2022-09-28T20:18:40.319Z,65.63
2022-09-28T20:19:42.273Z,65.86
2022-09-28T20:20:43.808Z,66.21
2022-09-28T20:21:45.392Z,66.87
2022-09-28T20:22:47.393Z,67.29
2022-09-28T20:23:49.607Z,67.24
2022-09-28T20:24:51.124Z,67.04
2022-09-28T20:25:52.981Z,66.68
2022-09-28T20:26:54.596Z,66.26
2022-09-28T20:27:56.105Z,66.45
2022-09-28T20:28:58.318Z,66.11
2022-09-28T20:29:59.860Z,66.39
2022-09-28T20:31:14.099Z,65.33
2022-09-28T20:32:15.840Z,65.54
2022-09-28T20:33:27.472Z,65.25
2022-09-28T20:34:30.040Z,65.29
2022-09-28T20:35:33.356Z,65.15
2022-09-28T20:36:35.923Z,65.15
2022-09-28T20:37:37.459Z,64.92
2022-09-28T20:38:40.591Z,64.65
2022-09-28T20:39:44.989Z,64.65
2022-09-28T20:40:48.132Z,64.79
2022-09-28T20:41:49.735Z,64.91
2022-09-28T20:42:51.464Z,64.92
2022-09-28T20:43:55.888Z,65.03
2022-09-28T20:44:58.036Z,64.73
2022-09-28T20:45:59.648Z,64.82
2022-09-28T20:47:01.226Z,64.40
2022-09-28T20:48:06.512Z,64.84
2022-09-28T20:49:08.002Z,65.24
2022-09-28T20:50:09.895Z,65.21
2022-09-28T20:51:14.130Z,64.68
2022-09-28T20:52:15.685Z,65.20
2022-09-28T20:53:17.242Z,65.19
2022-09-28T20:54:20.374Z,65.10
2022-09-28T20:55:22.380Z,64.53
2022-09-28T20:56:26.525Z,64.50
2022-09-28T20:57:28.830Z,64.66
2022-09-28T20:58:30.978Z,64.93
2022-09-28T20:59:32.756Z,65.03
2022-09-28T21:00:34.434Z,64.96